sensor_id;sensor_type;location;lat;lon;timestamp;temperature;humidity
15328;DHT22;7764;51.430;6.840;2022-07-10T00:00:29;15.80;99.90
15328;DHT22;7764;51.430;6.840;2022-07-10T00:02:56;15.70;99.90
15328;DHT22;7764;51.430;6.840;2022-07-10T00:05:24;15.70;99.90
15328;DHT22;7764;51.430;6.840;2022-07-10T00:07:51;15.70;99.90
15328;DHT22;7764;51.430;6.840;2022-07-10T00:10:20;15.70;99.90
15328;DHT22;7764;51.430;6.840;2022-07-10T00:12:47;15.60;99.90
15328;DHT22;7764;51.430;6.840;2022-07-10T00:15:15;15.60;99.90
15328;DHT22;7764;51.430;6.840;2022-07-10T00:17:44;15.70;99.90
15328;DHT22;7764;51.430;6.840;2022-07-10T00:20:12;15.70;99.90
15328;DHT22;7764;51.430;6.840;2022-07-10T00:22:41;15.70;99.90
15328;DHT22;7764;51.430;6.840;2022-07-10T00:25:10;15.70;99.90
15328;DHT22;7764;51.430;6.840;2022-07-10T00:27:38;15.70;99.90
15328;DHT22;7764;51.430;6.840;2022-07-10T00:30:05;15.70;99.90
15328;DHT22;7764;51.430;6.840;2022-07-10T00:32:32;15.70;99.90
15328;DHT22;7764;51.430;6.840;2022-07-10T00:35:01;15.70;99.90
15328;DHT22;7764;51.430;6.840;2022-07-10T00:37:29;15.80;99.90
15328;DHT22;7764;51.430;6.840;2022-07-10T00:39:56;15.80;99.90
15328;DHT22;7764;51.430;6.840;2022-07-10T00:42:22;15.90;99.90
15328;DHT22;7764;51.430;6.840;2022-07-10T00:44:49;15.90;99.90
15328;DHT22;7764;51.430;6.840;2022-07-10T00:47:16;15.90;99.90
15328;DHT22;7764;51.430;6.840;2022-07-10T00:49:45;15.80;99.90
15328;DHT22;7764;51.430;6.840;2022-07-10T00:52:15;15.90;99.90
15328;DHT22;7764;51.430;6.840;2022-07-10T00:54:43;15.90;99.90
15328;DHT22;7764;51.430;6.840;2022-07-10T00:57:12;15.90;99.90
15328;DHT22;7764;51.430;6.840;2022-07-10T00:59:40;15.90;99.90
15328;DHT22;7764;51.430;6.840;2022-07-10T01:02:07;15.90;99.90
15328;DHT22;7764;51.430;6.840;2022-07-10T01:04:34;16.00;99.90
15328;DHT22;7764;51.430;6.840;2022-07-10T01:07:01;16.00;99.90
15328;DHT22;7764;51.430;6.840;2022-07-10T01:09:30;16.00;99.90
15328;DHT22;7764;51.430;6.840;2022-07-10T01:11:59;16.00;99.90
15328;DHT22;7764;51.430;6.840;2022-07-10T01:14:28;16.00;99.90
15328;DHT22;7764;51.430;6.840;2022-07-10T01:16:54;16.00;99.90
15328;DHT22;7764;51.430;6.840;2022-07-10T01:19:21;16.00;99.90
15328;DHT22;7764;51.430;6.840;2022-07-10T01:21:50;16.00;99.90
15328;DHT22;7764;51.430;6.840;2022-07-10T01:24:16;16.00;99.90
15328;DHT22;7764;51.430;6.840;2022-07-10T01:26:43;16.10;99.90
15328;DHT22;7764;51.430;6.840;2022-07-10T01:29:11;16.10;99.90
15328;DHT22;7764;51.430;6.840;2022-07-10T01:31:38;16.10;99.90
15328;DHT22;7764;51.430;6.840;2022-07-10T01:34:07;16.10;99.90
15328;DHT22;7764;51.430;6.840;2022-07-10T01:36:35;16.10;99.90
15328;DHT22;7764;51.430;6.840;2022-07-10T01:39:04;16.10;99.90
15328;DHT22;7764;51.430;6.840;2022-07-10T01:41:31;16.00;99.90
15328;DHT22;7764;51.430;6.840;2022-07-10T01:43:58;16.10;99.90
15328;DHT22;7764;51.430;6.840;2022-07-10T01:46:25;16.00;99.90
15328;DHT22;7764;51.430;6.840;2022-07-10T01:48:52;16.10;99.90
15328;DHT22;7764;51.430;6.840;2022-07-10T01:51:20;16.00;99.90
15328;DHT22;7764;51.430;6.840;2022-07-10T01:53:47;16.10;99.90
15328;DHT22;7764;51.430;6.840;2022-07-10T01:56:16;16.10;99.90
15328;DHT22;7764;51.430;6.840;2022-07-10T01:58:43;16.00;99.90
15328;DHT22;7764;51.430;6.840;2022-07-10T02:01:11;16.00;99.90
15328;DHT22;7764;51.430;6.840;2022-07-10T02:03:38;16.10;99.90
15328;DHT22;7764;51.430;6.840;2022-07-10T02:06:23;16.00;99.90
15328;DHT22;7764;51.430;6.840;2022-07-10T02:08:50;16.00;99.90
15328;DHT22;7764;51.430;6.840;2022-07-10T02:11:18;16.00;99.90
15328;DHT22;7764;51.430;6.840;2022-07-10T02:13:45;15.90;99.90
15328;DHT22;7764;51.430;6.840;2022-07-10T02:16:12;15.90;99.90
15328;DHT22;7764;51.430;6.840;2022-07-10T02:18:39;15.90;99.90
15328;DHT22;7764;51.430;6.840;2022-07-10T02:21:07;15.90;99.90
15328;DHT22;7764;51.430;6.840;2022-07-10T02:23:34;15.90;99.90
15328;DHT22;7764;51.430;6.840;2022-07-10T02:26:01;15.90;99.90
15328;DHT22;7764;51.430;6.840;2022-07-10T02:28:29;15.90;99.90
15328;DHT22;7764;51.430;6.840;2022-07-10T02:30:56;15.80;99.90
15328;DHT22;7764;51.430;6.840;2022-07-10T02:33:23;15.90;99.90
15328;DHT22;7764;51.430;6.840;2022-07-10T02:35:50;15.80;99.90
15328;DHT22;7764;51.430;6.840;2022-07-10T02:38:17;15.80;99.90
15328;DHT22;7764;51.430;6.840;2022-07-10T02:40:44;15.80;99.90
15328;DHT22;7764;51.430;6.840;2022-07-10T02:43:11;15.80;99.90
15328;DHT22;7764;51.430;6.840;2022-07-10T02:45:39;15.70;99.90
15328;DHT22;7764;51.430;6.840;2022-07-10T02:48:06;15.70;99.90
15328;DHT22;7764;51.430;6.840;2022-07-10T02:50:33;15.70;99.90
15328;DHT22;7764;51.430;6.840;2022-07-10T02:53:00;15.70;99.90
15328;DHT22;7764;51.430;6.840;2022-07-10T02:55:28;15.70;99.90
15328;DHT22;7764;51.430;6.840;2022-07-10T02:57:57;15.60;99.90
15328;DHT22;7764;51.430;6.840;2022-07-10T03:00:24;15.60;99.90
15328;DHT22;7764;51.430;6.840;2022-07-10T03:02:52;15.60;99.90
15328;DHT22;7764;51.430;6.840;2022-07-10T03:05:19;15.70;99.90
15328;DHT22;7764;51.430;6.840;2022-07-10T03:07:46;15.60;99.90
15328;DHT22;7764;51.430;6.840;2022-07-10T03:10:13;15.60;99.90
15328;DHT22;7764;51.430;6.840;2022-07-10T03:12:40;15.60;99.90
15328;DHT22;7764;51.430;6.840;2022-07-10T03:15:08;15.50;99.90
15328;DHT22;7764;51.430;6.840;2022-07-10T03:17:35;15.50;99.90
15328;DHT22;7764;51.430;6.840;2022-07-10T03:20:04;15.50;99.90
15328;DHT22;7764;51.430;6.840;2022-07-10T03:22:31;15.40;99.90
15328;DHT22;7764;51.430;6.840;2022-07-10T03:24:58;15.40;99.90
15328;DHT22;7764;51.430;6.840;2022-07-10T03:27:25;15.30;99.90
15328;DHT22;7764;51.430;6.840;2022-07-10T03:29:52;15.30;99.90
15328;DHT22;7764;51.430;6.840;2022-07-10T03:32:19;15.30;99.90
15328;DHT22;7764;51.430;6.840;2022-07-10T03:34:46;15.40;99.90
15328;DHT22;7764;51.430;6.840;2022-07-10T03:37:14;15.30;99.90
15328;DHT22;7764;51.430;6.840;2022-07-10T03:39:41;15.40;99.90
15328;DHT22;7764;51.430;6.840;2022-07-10T03:42:07;15.40;99.90
15328;DHT22;7764;51.430;6.840;2022-07-10T03:44:34;15.40;99.90
15328;DHT22;7764;51.430;6.840;2022-07-10T03:47:02;15.30;99.90
15328;DHT22;7764;51.430;6.840;2022-07-10T03:49:29;15.30;99.90
15328;DHT22;7764;51.430;6.840;2022-07-10T03:51:58;15.30;99.90
15328;DHT22;7764;51.430;6.840;2022-07-10T03:54:27;15.20;99.90
15328;DHT22;7764;51.430;6.840;2022-07-10T03:56:54;15.20;99.90
15328;DHT22;7764;51.430;6.840;2022-07-10T03:59:38;15.20;99.90
15328;DHT22;7764;51.430;6.840;2022-07-10T04:02:05;15.20;99.90
15328;DHT22;7764;51.430;6.840;2022-07-10T04:04:32;15.20;99.90
15328;DHT22;7764;51.430;6.840;2022-07-10T04:06:59;15.10;99.90
15328;DHT22;7764;51.430;6.840;2022-07-10T04:09:27;15.10;99.90
15328;DHT22;7764;51.430;6.840;2022-07-10T04:11:54;15.10;99.90
15328;DHT22;7764;51.430;6.840;2022-07-10T04:14:20;15.20;99.90
15328;DHT22;7764;51.430;6.840;2022-07-10T04:16:47;15.30;99.90
15328;DHT22;7764;51.430;6.840;2022-07-10T04:19:14;15.30;99.90
15328;DHT22;7764;51.430;6.840;2022-07-10T04:21:41;15.40;99.90
15328;DHT22;7764;51.430;6.840;2022-07-10T04:24:08;15.40;99.90
15328;DHT22;7764;51.430;6.840;2022-07-10T04:26:37;15.50;99.90
15328;DHT22;7764;51.430;6.840;2022-07-10T04:29:03;15.90;99.90
15328;DHT22;7764;51.430;6.840;2022-07-10T04:31:30;15.90;99.90
15328;DHT22;7764;51.430;6.840;2022-07-10T04:33:57;15.90;99.90
15328;DHT22;7764;51.430;6.840;2022-07-10T04:36:24;16.30;99.90
15328;DHT22;7764;51.430;6.840;2022-07-10T04:38:51;16.90;99.90
15328;DHT22;7764;51.430;6.840;2022-07-10T04:41:18;17.40;99.90
15328;DHT22;7764;51.430;6.840;2022-07-10T04:43:46;17.90;99.90
15328;DHT22;7764;51.430;6.840;2022-07-10T04:46:13;18.30;99.90
15328;DHT22;7764;51.430;6.840;2022-07-10T04:48:40;18.50;99.90
15328;DHT22;7764;51.430;6.840;2022-07-10T04:51:06;18.80;99.90
15328;DHT22;7764;51.430;6.840;2022-07-10T04:53:34;19.00;99.90
15328;DHT22;7764;51.430;6.840;2022-07-10T04:56:01;19.30;99.90
15328;DHT22;7764;51.430;6.840;2022-07-10T04:58:28;19.40;99.90
15328;DHT22;7764;51.430;6.840;2022-07-10T05:00:56;19.60;99.90
15328;DHT22;7764;51.430;6.840;2022-07-10T05:03:23;19.90;99.90
15328;DHT22;7764;51.430;6.840;2022-07-10T05:05:50;20.20;99.90
15328;DHT22;7764;51.430;6.840;2022-07-10T05:08:17;20.70;99.90
15328;DHT22;7764;51.430;6.840;2022-07-10T05:10:44;20.80;99.90
15328;DHT22;7764;51.430;6.840;2022-07-10T05:13:11;20.70;99.90
15328;DHT22;7764;51.430;6.840;2022-07-10T05:15:38;20.90;99.90
15328;DHT22;7764;51.430;6.840;2022-07-10T05:18:06;20.70;99.90
15328;DHT22;7764;51.430;6.840;2022-07-10T05:20:34;20.60;99.90
15328;DHT22;7764;51.430;6.840;2022-07-10T05:23:03;20.20;99.90
15328;DHT22;7764;51.430;6.840;2022-07-10T05:25:30;19.70;99.90
15328;DHT22;7764;51.430;6.840;2022-07-10T05:27:58;19.10;99.90
15328;DHT22;7764;51.430;6.840;2022-07-10T05:30:25;18.70;99.90
15328;DHT22;7764;51.430;6.840;2022-07-10T05:32:51;18.50;99.90
15328;DHT22;7764;51.430;6.840;2022-07-10T05:35:20;18.50;99.90
15328;DHT22;7764;51.430;6.840;2022-07-10T05:37:47;18.50;99.90
15328;DHT22;7764;51.430;6.840;2022-07-10T05:40:13;18.30;99.90
15328;DHT22;7764;51.430;6.840;2022-07-10T05:42:40;18.60;99.90
15328;DHT22;7764;51.430;6.840;2022-07-10T05:45:08;18.50;99.90
15328;DHT22;7764;51.430;6.840;2022-07-10T05:47:35;18.50;99.90
15328;DHT22;7764;51.430;6.840;2022-07-10T05:50:02;18.30;99.90
15328;DHT22;7764;51.430;6.840;2022-07-10T05:52:30;17.90;99.90
15328;DHT22;7764;51.430;6.840;2022-07-10T05:54:58;17.70;99.90
15328;DHT22;7764;51.430;6.840;2022-07-10T05:57:25;17.60;99.90
15328;DHT22;7764;51.430;6.840;2022-07-10T05:59:52;17.60;99.90
15328;DHT22;7764;51.430;6.840;2022-07-10T06:02:19;17.50;99.90
15328;DHT22;7764;51.430;6.840;2022-07-10T06:04:46;17.40;99.90
15328;DHT22;7764;51.430;6.840;2022-07-10T06:07:13;17.40;99.90
15328;DHT22;7764;51.430;6.840;2022-07-10T06:09:41;17.40;99.90
15328;DHT22;7764;51.430;6.840;2022-07-10T06:12:08;17.40;99.90
15328;DHT22;7764;51.430;6.840;2022-07-10T06:14:36;17.30;99.90
15328;DHT22;7764;51.430;6.840;2022-07-10T06:17:03;17.30;99.90
15328;DHT22;7764;51.430;6.840;2022-07-10T06:19:30;17.10;99.90
15328;DHT22;7764;51.430;6.840;2022-07-10T06:21:57;17.20;99.90
15328;DHT22;7764;51.430;6.840;2022-07-10T06:24:42;17.20;99.90
15328;DHT22;7764;51.430;6.840;2022-07-10T06:27:09;17.20;99.90
15328;DHT22;7764;51.430;6.840;2022-07-10T06:29:37;17.20;99.90
15328;DHT22;7764;51.430;6.840;2022-07-10T06:32:04;17.20;99.90
15328;DHT22;7764;51.430;6.840;2022-07-10T06:34:31;17.10;99.90
15328;DHT22;7764;51.430;6.840;2022-07-10T06:36:58;17.10;99.90
15328;DHT22;7764;51.430;6.840;2022-07-10T06:39:25;17.10;99.90
15328;DHT22;7764;51.430;6.840;2022-07-10T06:41:53;17.00;99.90
15328;DHT22;7764;51.430;6.840;2022-07-10T06:44:20;17.10;99.90
15328;DHT22;7764;51.430;6.840;2022-07-10T06:46:47;17.00;99.90
15328;DHT22;7764;51.430;6.840;2022-07-10T06:49:34;17.10;99.90
15328;DHT22;7764;51.430;6.840;2022-07-10T06:52:00;17.10;99.90
15328;DHT22;7764;51.430;6.840;2022-07-10T06:54:27;17.00;99.90
15328;DHT22;7764;51.430;6.840;2022-07-10T06:56:56;17.00;99.90
15328;DHT22;7764;51.430;6.840;2022-07-10T06:59:23;16.90;99.90
15328;DHT22;7764;51.430;6.840;2022-07-10T07:01:50;16.90;99.90
15328;DHT22;7764;51.430;6.840;2022-07-10T07:04:17;17.00;99.90
15328;DHT22;7764;51.430;6.840;2022-07-10T07:06:44;17.00;99.90
15328;DHT22;7764;51.430;6.840;2022-07-10T07:09:11;17.00;99.90
15328;DHT22;7764;51.430;6.840;2022-07-10T07:11:38;17.10;99.90
15328;DHT22;7764;51.430;6.840;2022-07-10T07:14:06;17.20;99.90
15328;DHT22;7764;51.430;6.840;2022-07-10T07:16:33;17.20;99.90
15328;DHT22;7764;51.430;6.840;2022-07-10T07:19:07;17.10;99.90
15328;DHT22;7764;51.430;6.840;2022-07-10T07:21:35;17.00;99.90
15328;DHT22;7764;51.430;6.840;2022-07-10T07:24:20;16.90;99.90
15328;DHT22;7764;51.430;6.840;2022-07-10T07:26:47;16.90;99.90
15328;DHT22;7764;51.430;6.840;2022-07-10T07:29:16;16.70;99.90
15328;DHT22;7764;51.430;6.840;2022-07-10T07:31:43;16.70;99.90
15328;DHT22;7764;51.430;6.840;2022-07-10T07:34:11;16.70;99.90
15328;DHT22;7764;51.430;6.840;2022-07-10T07:36:38;16.70;99.90
15328;DHT22;7764;51.430;6.840;2022-07-10T07:39:05;16.50;99.90
15328;DHT22;7764;51.430;6.840;2022-07-10T07:41:31;16.60;99.90
15328;DHT22;7764;51.430;6.840;2022-07-10T07:43:58;16.40;99.90
15328;DHT22;7764;51.430;6.840;2022-07-10T07:46:27;16.40;99.90
15328;DHT22;7764;51.430;6.840;2022-07-10T07:48:53;16.50;99.90
15328;DHT22;7764;51.430;6.840;2022-07-10T07:51:20;16.40;99.90
15328;DHT22;7764;51.430;6.840;2022-07-10T07:53:47;16.40;99.90
15328;DHT22;7764;51.430;6.840;2022-07-10T07:56:14;16.40;99.90
15328;DHT22;7764;51.430;6.840;2022-07-10T07:58:41;16.20;99.90
15328;DHT22;7764;51.430;6.840;2022-07-10T08:01:09;16.30;99.90
15328;DHT22;7764;51.430;6.840;2022-07-10T08:03:37;16.30;99.90
15328;DHT22;7764;51.430;6.840;2022-07-10T08:06:04;16.40;99.90
15328;DHT22;7764;51.430;6.840;2022-07-10T08:08:31;16.20;99.90
15328;DHT22;7764;51.430;6.840;2022-07-10T08:10:58;16.20;99.90
15328;DHT22;7764;51.430;6.840;2022-07-10T08:13:25;16.10;99.90
15328;DHT22;7764;51.430;6.840;2022-07-10T08:15:52;16.20;99.90
15328;DHT22;7764;51.430;6.840;2022-07-10T08:18:19;16.30;99.90
15328;DHT22;7764;51.430;6.840;2022-07-10T08:20:47;16.30;99.90
15328;DHT22;7764;51.430;6.840;2022-07-10T08:23:14;16.40;99.90
15328;DHT22;7764;51.430;6.840;2022-07-10T08:25:41;16.40;99.90
15328;DHT22;7764;51.430;6.840;2022-07-10T08:28:08;16.50;99.90
15328;DHT22;7764;51.430;6.840;2022-07-10T08:30:35;16.40;99.90
15328;DHT22;7764;51.430;6.840;2022-07-10T08:33:02;16.50;99.90
15328;DHT22;7764;51.430;6.840;2022-07-10T08:35:30;16.50;99.90
15328;DHT22;7764;51.430;6.840;2022-07-10T08:37:58;16.60;99.90
15328;DHT22;7764;51.430;6.840;2022-07-10T08:40:25;16.60;99.90
15328;DHT22;7764;51.430;6.840;2022-07-10T08:43:00;16.60;99.90
15328;DHT22;7764;51.430;6.840;2022-07-10T08:45:27;16.60;99.90
15328;DHT22;7764;51.430;6.840;2022-07-10T08:48:01;16.70;99.90
15328;DHT22;7764;51.430;6.840;2022-07-10T08:50:32;16.80;99.90
15328;DHT22;7764;51.430;6.840;2022-07-10T08:53:07;16.90;99.90
15328;DHT22;7764;51.430;6.840;2022-07-10T08:55:35;17.00;99.90
15328;DHT22;7764;51.430;6.840;2022-07-10T08:58:03;17.00;99.90
15328;DHT22;7764;51.430;6.840;2022-07-10T09:00:31;17.00;99.90
15328;DHT22;7764;51.430;6.840;2022-07-10T09:02:58;17.00;99.90
15328;DHT22;7764;51.430;6.840;2022-07-10T09:05:26;17.00;99.90
15328;DHT22;7764;51.430;6.840;2022-07-10T09:07:53;17.10;99.90
15328;DHT22;7764;51.430;6.840;2022-07-10T09:10:24;17.10;99.90
15328;DHT22;7764;51.430;6.840;2022-07-10T09:12:56;17.30;99.90
15328;DHT22;7764;51.430;6.840;2022-07-10T09:15:24;17.50;99.90
15328;DHT22;7764;51.430;6.840;2022-07-10T09:17:53;17.60;99.90
15328;DHT22;7764;51.430;6.840;2022-07-10T09:20:31;17.70;99.90
15328;DHT22;7764;51.430;6.840;2022-07-10T09:23:00;17.60;99.90
15328;DHT22;7764;51.430;6.840;2022-07-10T09:25:36;17.40;99.90
15328;DHT22;7764;51.430;6.840;2022-07-10T09:28:03;17.40;99.90
15328;DHT22;7764;51.430;6.840;2022-07-10T09:30:36;17.30;99.90
15328;DHT22;7764;51.430;6.840;2022-07-10T09:33:30;17.20;99.90
15328;DHT22;7764;51.430;6.840;2022-07-10T09:36:04;16.90;99.90
15328;DHT22;7764;51.430;6.840;2022-07-10T09:38:54;16.90;99.90
15328;DHT22;7764;51.430;6.840;2022-07-10T09:41:27;17.10;99.90
15328;DHT22;7764;51.430;6.840;2022-07-10T09:43:56;17.20;99.90
15328;DHT22;7764;51.430;6.840;2022-07-10T09:46:24;17.00;99.90
15328;DHT22;7764;51.430;6.840;2022-07-10T09:49:02;17.00;99.90
15328;DHT22;7764;51.430;6.840;2022-07-10T09:51:31;17.00;99.90
15328;DHT22;7764;51.430;6.840;2022-07-10T09:54:00;16.90;99.90
15328;DHT22;7764;51.430;6.840;2022-07-10T09:56:34;16.90;99.90
15328;DHT22;7764;51.430;6.840;2022-07-10T09:59:09;17.00;99.90
15328;DHT22;7764;51.430;6.840;2022-07-10T10:01:36;17.20;99.90
15328;DHT22;7764;51.430;6.840;2022-07-10T10:04:04;17.40;99.90
15328;DHT22;7764;51.430;6.840;2022-07-10T10:06:33;17.70;99.90
15328;DHT22;7764;51.430;6.840;2022-07-10T10:09:04;17.70;99.90
15328;DHT22;7764;51.430;6.840;2022-07-10T10:11:35;17.70;99.90
15328;DHT22;7764;51.430;6.840;2022-07-10T10:14:03;17.40;99.90
15328;DHT22;7764;51.430;6.840;2022-07-10T10:16:33;17.50;99.90
15328;DHT22;7764;51.430;6.840;2022-07-10T10:19:02;17.40;99.90
15328;DHT22;7764;51.430;6.840;2022-07-10T10:21:46;17.40;99.90
15328;DHT22;7764;51.430;6.840;2022-07-10T10:24:14;17.40;99.90
15328;DHT22;7764;51.430;6.840;2022-07-10T10:26:43;17.50;99.90
15328;DHT22;7764;51.430;6.840;2022-07-10T10:29:11;17.40;99.90
15328;DHT22;7764;51.430;6.840;2022-07-10T10:31:39;17.30;99.90
15328;DHT22;7764;51.430;6.840;2022-07-10T10:34:06;17.20;99.90
15328;DHT22;7764;51.430;6.840;2022-07-10T10:36:48;17.30;99.90
15328;DHT22;7764;51.430;6.840;2022-07-10T10:39:17;17.30;99.90
15328;DHT22;7764;51.430;6.840;2022-07-10T10:41:50;17.40;99.90
15328;DHT22;7764;51.430;6.840;2022-07-10T10:44:25;17.50;99.90
15328;DHT22;7764;51.430;6.840;2022-07-10T10:46:56;17.50;99.90
15328;DHT22;7764;51.430;6.840;2022-07-10T10:49:28;17.50;99.90
15328;DHT22;7764;51.430;6.840;2022-07-10T10:52:15;17.40;99.90
15328;DHT22;7764;51.430;6.840;2022-07-10T10:55:00;17.70;99.90
15328;DHT22;7764;51.430;6.840;2022-07-10T10:57:37;17.60;99.90
15328;DHT22;7764;51.430;6.840;2022-07-10T11:00:12;17.80;99.90
15328;DHT22;7764;51.430;6.840;2022-07-10T11:02:40;17.70;99.90
15328;DHT22;7764;51.430;6.840;2022-07-10T11:05:38;17.70;99.90
15328;DHT22;7764;51.430;6.840;2022-07-10T11:08:07;17.60;99.90
15328;DHT22;7764;51.430;6.840;2022-07-10T11:10:35;17.70;99.90
15328;DHT22;7764;51.430;6.840;2022-07-10T11:13:04;17.80;99.90
15328;DHT22;7764;51.430;6.840;2022-07-10T11:15:32;18.10;99.90
15328;DHT22;7764;51.430;6.840;2022-07-10T11:17:59;18.50;99.90
15328;DHT22;7764;51.430;6.840;2022-07-10T11:20:33;18.60;99.90
15328;DHT22;7764;51.430;6.840;2022-07-10T11:23:24;18.50;99.90
15328;DHT22;7764;51.430;6.840;2022-07-10T11:25:54;18.30;99.90
15328;DHT22;7764;51.430;6.840;2022-07-10T11:28:49;18.20;99.90
15328;DHT22;7764;51.430;6.840;2022-07-10T11:31:16;18.30;99.90
15328;DHT22;7764;51.430;6.840;2022-07-10T11:33:45;18.30;99.90
15328;DHT22;7764;51.430;6.840;2022-07-10T11:36:15;18.30;99.90
15328;DHT22;7764;51.430;6.840;2022-07-10T11:38:42;18.30;99.90
15328;DHT22;7764;51.430;6.840;2022-07-10T11:41:14;18.20;99.90
15328;DHT22;7764;51.430;6.840;2022-07-10T11:43:53;18.50;99.90
15328;DHT22;7764;51.430;6.840;2022-07-10T11:46:21;18.50;99.90
15328;DHT22;7764;51.430;6.840;2022-07-10T11:48:49;18.60;99.90
15328;DHT22;7764;51.430;6.840;2022-07-10T11:51:21;18.70;99.90
15328;DHT22;7764;51.430;6.840;2022-07-10T11:53:57;18.70;99.90
15328;DHT22;7764;51.430;6.840;2022-07-10T11:56:24;18.60;99.90
15328;DHT22;7764;51.430;6.840;2022-07-10T11:58:57;18.60;99.90
15328;DHT22;7764;51.430;6.840;2022-07-10T12:01:25;18.60;99.90
15328;DHT22;7764;51.430;6.840;2022-07-10T12:03:56;18.40;99.90
15328;DHT22;7764;51.430;6.840;2022-07-10T12:06:24;18.40;99.90
15328;DHT22;7764;51.430;6.840;2022-07-10T12:08:51;18.50;99.90
15328;DHT22;7764;51.430;6.840;2022-07-10T12:11:19;18.60;99.90
15328;DHT22;7764;51.430;6.840;2022-07-10T12:13:47;18.70;99.90
15328;DHT22;7764;51.430;6.840;2022-07-10T12:16:16;18.60;99.90
15328;DHT22;7764;51.430;6.840;2022-07-10T12:18:44;18.70;99.90
15328;DHT22;7764;51.430;6.840;2022-07-10T12:21:12;18.80;99.90
15328;DHT22;7764;51.430;6.840;2022-07-10T12:23:40;18.70;99.90
15328;DHT22;7764;51.430;6.840;2022-07-10T12:26:11;18.50;99.90
15328;DHT22;7764;51.430;6.840;2022-07-10T12:28:52;18.60;99.90
15328;DHT22;7764;51.430;6.840;2022-07-10T12:31:25;18.80;99.90
15328;DHT22;7764;51.430;6.840;2022-07-10T12:33:56;18.80;99.90
15328;DHT22;7764;51.430;6.840;2022-07-10T12:36:40;18.70;99.90
15328;DHT22;7764;51.430;6.840;2022-07-10T12:39:07;18.50;99.90
15328;DHT22;7764;51.430;6.840;2022-07-10T12:41:34;18.50;99.90
15328;DHT22;7764;51.430;6.840;2022-07-10T12:44:01;18.50;99.90
15328;DHT22;7764;51.430;6.840;2022-07-10T12:46:29;18.70;99.90
15328;DHT22;7764;51.430;6.840;2022-07-10T12:49:06;19.00;99.90
15328;DHT22;7764;51.430;6.840;2022-07-10T12:51:41;19.20;99.90
15328;DHT22;7764;51.430;6.840;2022-07-10T12:54:08;19.30;99.90
15328;DHT22;7764;51.430;6.840;2022-07-10T12:56:37;19.60;99.90
15328;DHT22;7764;51.430;6.840;2022-07-10T12:59:12;19.60;99.90
15328;DHT22;7764;51.430;6.840;2022-07-10T13:01:42;19.60;99.90
15328;DHT22;7764;51.430;6.840;2022-07-10T13:04:10;19.70;99.90
15328;DHT22;7764;51.430;6.840;2022-07-10T13:06:38;19.70;99.90
15328;DHT22;7764;51.430;6.840;2022-07-10T13:09:19;19.90;99.90
15328;DHT22;7764;51.430;6.840;2022-07-10T13:11:47;19.80;99.90
15328;DHT22;7764;51.430;6.840;2022-07-10T13:14:14;19.80;99.90
15328;DHT22;7764;51.430;6.840;2022-07-10T13:16:42;20.00;99.90
15328;DHT22;7764;51.430;6.840;2022-07-10T13:19:09;20.10;99.90
15328;DHT22;7764;51.430;6.840;2022-07-10T13:21:36;20.20;99.90
15328;DHT22;7764;51.430;6.840;2022-07-10T13:24:04;20.40;99.90
15328;DHT22;7764;51.430;6.840;2022-07-10T13:26:31;20.30;99.90
15328;DHT22;7764;51.430;6.840;2022-07-10T13:28:58;20.40;99.90
15328;DHT22;7764;51.430;6.840;2022-07-10T13:31:25;20.40;99.90
15328;DHT22;7764;51.430;6.840;2022-07-10T13:33:54;20.40;99.90
15328;DHT22;7764;51.430;6.840;2022-07-10T13:36:22;20.50;99.90
15328;DHT22;7764;51.430;6.840;2022-07-10T13:38:50;20.40;99.90
15328;DHT22;7764;51.430;6.840;2022-07-10T13:41:18;20.40;99.90
15328;DHT22;7764;51.430;6.840;2022-07-10T13:43:45;20.50;99.90
15328;DHT22;7764;51.430;6.840;2022-07-10T13:46:12;20.50;99.90
15328;DHT22;7764;51.430;6.840;2022-07-10T13:48:39;20.50;99.90
15328;DHT22;7764;51.430;6.840;2022-07-10T13:51:07;20.50;99.90
15328;DHT22;7764;51.430;6.840;2022-07-10T13:53:34;20.40;99.90
15328;DHT22;7764;51.430;6.840;2022-07-10T13:56:01;20.40;99.90
15328;DHT22;7764;51.430;6.840;2022-07-10T13:58:30;20.40;99.90
15328;DHT22;7764;51.430;6.840;2022-07-10T14:00:57;20.30;99.90
15328;DHT22;7764;51.430;6.840;2022-07-10T14:03:25;20.30;99.90
15328;DHT22;7764;51.430;6.840;2022-07-10T14:05:53;20.30;99.90
15328;DHT22;7764;51.430;6.840;2022-07-10T14:08:21;20.20;99.90
15328;DHT22;7764;51.430;6.840;2022-07-10T14:10:49;20.30;99.90
15328;DHT22;7764;51.430;6.840;2022-07-10T14:13:16;20.20;99.90
15328;DHT22;7764;51.430;6.840;2022-07-10T14:15:43;20.10;99.90
15328;DHT22;7764;51.430;6.840;2022-07-10T14:18:11;20.10;99.90
15328;DHT22;7764;51.430;6.840;2022-07-10T14:20:38;20.10;99.90
15328;DHT22;7764;51.430;6.840;2022-07-10T14:23:24;20.10;99.90
15328;DHT22;7764;51.430;6.840;2022-07-10T14:25:50;20.00;99.90
15328;DHT22;7764;51.430;6.840;2022-07-10T14:28:20;20.00;99.90
15328;DHT22;7764;51.430;6.840;2022-07-10T14:30:48;20.00;99.90
15328;DHT22;7764;51.430;6.840;2022-07-10T14:33:15;20.10;99.90
15328;DHT22;7764;51.430;6.840;2022-07-10T14:35:42;20.20;99.90
15328;DHT22;7764;51.430;6.840;2022-07-10T14:38:09;20.30;99.90
15328;DHT22;7764;51.430;6.840;2022-07-10T14:40:37;20.40;99.90
15328;DHT22;7764;51.430;6.840;2022-07-10T14:43:04;20.40;99.90
15328;DHT22;7764;51.430;6.840;2022-07-10T14:45:31;20.30;99.90
15328;DHT22;7764;51.430;6.840;2022-07-10T14:47:58;20.20;99.90
15328;DHT22;7764;51.430;6.840;2022-07-10T14:50:26;20.20;99.90
15328;DHT22;7764;51.430;6.840;2022-07-10T14:52:52;20.20;99.90
15328;DHT22;7764;51.430;6.840;2022-07-10T14:55:19;20.20;99.90
15328;DHT22;7764;51.430;6.840;2022-07-10T14:57:48;20.30;99.90
15328;DHT22;7764;51.430;6.840;2022-07-10T15:00:15;20.40;99.90
15328;DHT22;7764;51.430;6.840;2022-07-10T15:02:43;20.50;99.90
15328;DHT22;7764;51.430;6.840;2022-07-10T15:05:10;20.80;99.90
15328;DHT22;7764;51.430;6.840;2022-07-10T15:07:37;20.90;99.90
15328;DHT22;7764;51.430;6.840;2022-07-10T15:10:05;20.90;99.90
15328;DHT22;7764;51.430;6.840;2022-07-10T15:12:33;20.90;99.90
15328;DHT22;7764;51.430;6.840;2022-07-10T15:15:04;20.90;99.90
15328;DHT22;7764;51.430;6.840;2022-07-10T15:17:33;20.90;99.90
15328;DHT22;7764;51.430;6.840;2022-07-10T15:20:00;20.90;99.90
15328;DHT22;7764;51.430;6.840;2022-07-10T15:22:27;20.90;99.90
15328;DHT22;7764;51.430;6.840;2022-07-10T15:24:54;20.70;99.90
15328;DHT22;7764;51.430;6.840;2022-07-10T15:27:20;20.80;99.90
15328;DHT22;7764;51.430;6.840;2022-07-10T15:29:47;20.80;99.90
15328;DHT22;7764;51.430;6.840;2022-07-10T15:32:16;20.90;99.90
15328;DHT22;7764;51.430;6.840;2022-07-10T15:34:42;20.80;99.90
15328;DHT22;7764;51.430;6.840;2022-07-10T15:37:09;20.90;99.90
15328;DHT22;7764;51.430;6.840;2022-07-10T15:39:36;20.90;99.90
15328;DHT22;7764;51.430;6.840;2022-07-10T15:42:08;20.90;99.90
15328;DHT22;7764;51.430;6.840;2022-07-10T15:44:34;21.00;99.90
15328;DHT22;7764;51.430;6.840;2022-07-10T15:47:02;21.00;99.90
15328;DHT22;7764;51.430;6.840;2022-07-10T15:49:30;21.00;99.90
15328;DHT22;7764;51.430;6.840;2022-07-10T15:51:57;21.00;99.90
15328;DHT22;7764;51.430;6.840;2022-07-10T15:54:25;21.00;99.90